Time;durP1;ratioP1;P1;durP2;ratioP2;P2;SDS_P1;SDS_P2;PMS_P1;PMS_P2;Temp;Humidity;BMP_temperature;BMP_pressure;BME280_temperature;BME280_humidity;BME280_pressure;Samples;Min_cycle;Max_cycle;Signal;HPM_P1;HPM_P2
2022/12/16 00:00:41;;;;;;;20.30;13.83;;;;;;;2.81;50.39;96707.03;8380082;28;20221;-65
2022/12/16 00:04:45;;;;;;;17.77;12.93;;;;;;;3.10;49.83;96706.88;8379421;28;20430;-65
2022/12/16 00:08:47;;;;;;;18.60;13.13;;;;;;;3.06;50.12;96707.84;8379791;28;20255;-65
2022/12/16 00:12:52;;;;;;;18.97;13.13;;;;;;;3.11;50.66;96702.59;8379812;28;20241;-66
2022/12/16 00:16:56;;;;;;;20.93;14.63;;;;;;;2.87;50.81;96678.69;8378967;28;20228;-66
2022/12/16 00:20:59;;;;;;;18.53;13.43;;;;;;;3.15;50.75;96699.03;8379491;28;20296;-66
2022/12/16 00:25:02;;;;;;;18.13;12.83;;;;;;;3.10;51.15;96690.66;8379828;28;20232;-65
2022/12/16 00:29:06;;;;;;;18.53;13.20;;;;;;;3.11;50.78;96700.03;8379489;28;20443;-65
2022/12/16 00:33:09;;;;;;;18.80;12.93;;;;;;;3.18;50.69;96691.25;8379516;28;20553;-65
2022/12/16 00:37:12;;;;;;;15.93;11.93;;;;;;;3.08;50.50;96685.59;8379637;28;20260;-66
2022/12/16 00:41:15;;;;;;;17.20;12.60;;;;;;;2.98;50.06;96668.09;8378976;28;20224;-65
2022/12/16 00:45:19;;;;;;;18.13;12.60;;;;;;;3.17;50.33;96688.75;8379329;28;20565;-66
2022/12/16 00:49:22;;;;;;;16.63;11.43;;;;;;;3.03;51.22;96684.94;8378838;28;20221;-66
2022/12/16 00:53:25;;;;;;;17.53;12.37;;;;;;;3.05;50.64;96669.56;8379033;28;20339;-65
2022/12/16 00:57:28;;;;;;;17.53;12.67;;;;;;;3.08;50.26;96677.94;8378408;28;20241;-66
2022/12/16 01:01:32;;;;;;;19.00;13.37;;;;;;;3.24;51.07;96682.53;8378178;28;20546;-65
2022/12/16 01:05:37;;;;;;;18.20;12.40;;;;;;;3.10;51.47;96688.13;8378222;28;20233;-66
2022/12/16 01:09:41;;;;;;;17.00;12.07;;;;;;;2.84;51.28;96696.69;8378442;28;20238;-66
2022/12/16 01:13:44;;;;;;;16.93;12.73;;;;;;;2.86;52.10;96697.47;8378245;28;20224;-66
2022/12/16 01:17:48;;;;;;;17.87;12.50;;;;;;;3.01;51.83;96704.63;8378207;28;20504;-65
2022/12/16 01:21:51;;;;;;;17.23;12.40;;;;;;;2.91;52.18;96709.22;8378017;28;20339;-65
2022/12/16 01:25:58;;;;;;;17.63;13.07;;;;;;;2.98;51.98;96711.56;8376953;28;20425;-66
2022/12/16 01:30:01;;;;;;;17.73;12.50;;;;;;;2.83;52.43;96685.63;8377686;28;20228;-65
2022/12/16 01:34:05;;;;;;;18.27;12.67;;;;;;;2.69;52.95;96708.28;8377884;28;20251;-66
2022/12/16 01:38:08;;;;;;;15.80;11.93;;;;;;;2.83;52.94;96710.34;8378224;28;20460;-65
2022/12/16 01:42:12;;;;;;;17.07;12.10;;;;;;;2.32;53.81;96700.06;8377845;28;20243;-66
2022/12/16 01:46:19;;;;;;;17.57;11.80;;;;;;;2.70;52.70;96700.56;8378088;28;20236;-65
2022/12/16 01:50:24;;;;;;;16.30;11.70;;;;;;;2.75;53.10;96718.28;8377482;28;20292;-65
2022/12/16 01:54:30;;;;;;;17.90;11.70;;;;;;;2.90;52.78;96706.72;8380808;28;20322;-65
2022/12/16 01:58:37;;;;;;;17.23;12.07;;;;;;;2.70;52.94;96672.44;8384099;28;20232;-66
2022/12/16 02:02:42;;;;;;;18.00;12.20;;;;;;;2.82;53.59;96719.75;8379972;28;20224;-66
2022/12/16 02:06:47;;;;;;;16.47;11.93;;;;;;;2.73;53.82;96720.06;8392033;28;20233;-65
2022/12/16 02:11:02;;;;;;;17.63;12.33;;;;;;;2.80;53.79;96720.69;8383507;28;20237;-66
2022/12/16 02:15:24;;;;;;;15.37;11.77;;;;;;;2.90;53.61;96722.88;8382652;28;20224;-66
2022/12/16 02:19:50;;;;;;;15.87;11.77;;;;;;;2.68;54.26;96721.94;8383402;28;20267;-65
2022/12/16 02:24:28;;;;;;;16.77;12.07;;;;;;;2.52;55.30;96721.59;8382622;28;20248;-65
2022/12/16 02:28:48;;;;;;;15.07;11.47;;;;;;;2.63;54.38;96722.09;8366487;28;20239;-66
2022/12/16 02:33:01;;;;;;;13.93;10.57;;;;;;;2.70;55.12;96728.69;8382516;28;20271;-66
2022/12/16 02:37:14;;;;;;;16.30;11.60;;;;;;;2.71;54.98;96730.34;8382235;28;20236;-66
2022/12/16 02:41:21;;;;;;;16.50;10.73;;;;;;;2.38;55.98;96711.81;8382408;28;20240;-66
2022/12/16 02:45:27;;;;;;;14.77;11.30;;;;;;;2.44;55.28;96731.25;8382041;28;20351;-66
2022/12/16 02:49:47;;;;;;;14.77;11.03;;;;;;;2.50;55.65;96733.59;8382194;28;20420;-66
2022/12/16 02:53:51;;;;;;;14.50;10.47;;;;;;;2.63;55.37;96731.47;8380587;28;20225;-66
2022/12/16 02:58:01;;;;;;;13.63;10.23;;;;;;;2.50;55.08;96734.41;8381600;28;20590;-66
2022/12/16 03:02:11;;;;;;;13.20;10.23;;;;;;;2.51;55.05;96689.25;8381918;28;20536;-66
2022/12/16 03:06:17;;;;;;;13.63;9.90;;;;;;;2.69;54.66;96746.63;8380760;28;20228;-66
2022/12/16 03:10:21;;;;;;;12.87;9.53;;;;;;;2.71;55.54;96740.56;8384050;28;20381;-66
2022/12/16 03:14:27;;;;;;;13.27;9.90;;;;;;;2.64;55.55;96733.97;8383611;28;20311;-65
2022/12/16 03:18:30;;;;;;;14.67;10.27;;;;;;;2.22;55.96;96698.69;8383655;28;20245;-65
2022/12/16 03:22:37;;;;;;;14.53;10.33;;;;;;;2.59;55.76;96729.88;8383514;28;20286;-66
2022/12/16 03:26:44;;;;;;;13.27;10.17;;;;;;;2.65;54.33;96738.22;8383647;28;20235;-65
2022/12/16 03:30:51;;;;;;;14.13;10.07;;;;;;;2.59;55.33;96735.00;8383126;28;20224;-66
2022/12/16 03:34:57;;;;;;;13.53;9.93;;;;;;;2.83;55.02;96753.81;8382273;28;20236;-65
2022/12/16 03:39:03;;;;;;;14.60;10.40;;;;;;;2.72;55.08;96755.03;8382612;28;20350;-66
2022/12/16 03:43:06;;;;;;;12.07;9.50;;;;;;;2.67;55.69;96772.22;8382674;28;20560;-66
2022/12/16 03:47:09;;;;;;;14.77;10.17;;;;;;;2.74;55.24;96781.38;8382600;28;20232;-66
2022/12/16 03:51:12;;;;;;;15.40;10.27;;;;;;;2.72;55.07;96790.81;8382198;28;20244;-66
2022/12/16 03:55:17;;;;;;;13.23;9.60;;;;;;;2.86;55.38;96787.81;8382387;28;20559;-65
2022/12/16 03:59:20;;;;;;;12.57;10.00;;;;;;;2.69;54.96;96752.56;8381937;28;20447;-65
2022/12/16 04:03:22;;;;;;;11.97;9.23;;;;;;;2.71;55.58;96770.41;8381910;28;20520;-65
2022/12/16 04:07:25;;;;;;;13.23;9.60;;;;;;;2.55;55.61;96770.03;8381708;28;20415;-66
2022/12/16 04:24:48;;;;;;;10.93;8.00;;;;;;;2.21;57.64;96772.78;8381638;28;20519;-65
2022/12/16 04:28:53;;;;;;;11.23;8.20;;;;;;;2.84;55.88;96781.09;8381311;28;20232;-66
